sensor_id;sensor_type;location;lat;lon;timestamp;pressure;altitude;pressure_sealevel;temperature;humidity
37291;BME280;23175;-33.706;151.094;2023-05-13T00:00:38;101401.85;;;13.17;45.59
37291;BME280;23175;-33.706;151.094;2023-05-13T00:03:08;101393.68;;;19.45;37.75
37291;BME280;23175;-33.706;151.094;2023-05-13T00:05:38;101393.08;;;19.08;39.33
37291;BME280;23175;-33.706;151.094;2023-05-13T00:08:08;101392.77;;;17.36;42.52
37291;BME280;23175;-33.706;151.094;2023-05-13T00:10:38;101390.29;;;18.13;41.77
37291;BME280;23175;-33.706;151.094;2023-05-13T00:13:08;101391.08;;;17.89;41.89
37291;BME280;23175;-33.706;151.094;2023-05-13T00:15:38;101396.62;;;15.81;45.97
37291;BME280;23175;-33.706;151.094;2023-05-13T00:18:08;101395.95;;;14.46;48.80
37291;BME280;23175;-33.706;151.094;2023-05-13T00:20:38;101396.74;;;16.56;46.64
37291;BME280;23175;-33.706;151.094;2023-05-13T00:23:07;101390.83;;;17.81;43.84
37291;BME280;23175;-33.706;151.094;2023-05-13T00:25:37;101390.34;;;18.34;42.84
37291;BME280;23175;-33.706;151.094;2023-05-13T00:28:07;101392.15;;;15.76;47.24
37291;BME280;23175;-33.706;151.094;2023-05-13T00:30:37;101388.74;;;18.25;44.32
37291;BME280;23175;-33.706;151.094;2023-05-13T00:33:07;101391.47;;;15.05;49.41
37291;BME280;23175;-33.706;151.094;2023-05-13T00:35:37;101387.01;;;16.51;47.10
37291;BME280;23175;-33.706;151.094;2023-05-13T00:38:07;101389.65;;;13.14;54.15
37291;BME280;23175;-33.706;151.094;2023-05-13T00:40:39;101383.69;;;16.25;48.77
37291;BME280;23175;-33.706;151.094;2023-05-13T00:43:09;101380.16;;;17.22;47.17
37291;BME280;23175;-33.706;151.094;2023-05-13T00:45:39;101380.48;;;17.22;46.42
37291;BME280;23175;-33.706;151.094;2023-05-13T00:48:10;101376.85;;;16.88;46.70
37291;BME280;23175;-33.706;151.094;2023-05-13T00:50:41;101370.34;;;18.14;43.96
37291;BME280;23175;-33.706;151.094;2023-05-13T00:53:11;101366.82;;;19.24;41.60
37291;BME280;23175;-33.706;151.094;2023-05-13T00:55:43;101360.22;;;18.95;41.64
37291;BME280;23175;-33.706;151.094;2023-05-13T00:58:14;101355.96;;;19.55;41.34
37291;BME280;23175;-33.706;151.094;2023-05-13T01:00:50;101349.55;;;21.40;38.15
37291;BME280;23175;-33.706;151.094;2023-05-13T01:03:28;101349.52;;;20.63;37.90
37291;BME280;23175;-33.706;151.094;2023-05-13T01:06:07;101347.04;;;21.95;36.24
37291;BME280;23175;-33.706;151.094;2023-05-13T01:08:44;101345.39;;;19.87;38.57
37291;BME280;23175;-33.706;151.094;2023-05-13T01:11:19;101345.04;;;19.03;41.26
37291;BME280;23175;-33.706;151.094;2023-05-13T01:13:52;101337.14;;;20.23;39.93
37291;BME280;23175;-33.706;151.094;2023-05-13T01:16:33;101336.80;;;19.82;40.75
37291;BME280;23175;-33.706;151.094;2023-05-13T01:19:11;101328.02;;;16.84;44.29
37291;BME280;23175;-33.706;151.094;2023-05-13T01:21:42;101328.76;;;18.29;42.89
37291;BME280;23175;-33.706;151.094;2023-05-13T01:24:20;101326.11;;;19.12;42.39
37291;BME280;23175;-33.706;151.094;2023-05-13T01:26:50;101323.55;;;15.94;45.94
37291;BME280;23175;-33.706;151.094;2023-05-13T01:29:20;101319.51;;;17.62;44.11
37291;BME280;23175;-33.706;151.094;2023-05-13T01:31:51;101314.92;;;16.71;46.16
37291;BME280;23175;-33.706;151.094;2023-05-13T01:34:23;101305.29;;;16.90;46.28
37291;BME280;23175;-33.706;151.094;2023-05-13T01:36:54;101303.49;;;16.08;47.29
37291;BME280;23175;-33.706;151.094;2023-05-13T01:39:24;101308.59;;;14.36;50.45
37291;BME280;23175;-33.706;151.094;2023-05-13T01:41:54;101299.09;;;16.61;46.79
37291;BME280;23175;-33.706;151.094;2023-05-13T01:44:24;101297.51;;;16.25;46.83
37291;BME280;23175;-33.706;151.094;2023-05-13T01:46:54;101294.28;;;14.83;49.16
37291;BME280;23175;-33.706;151.094;2023-05-13T01:49:24;101286.78;;;15.36;47.75
37291;BME280;23175;-33.706;151.094;2023-05-13T01:51:54;101286.72;;;14.55;49.86
37291;BME280;23175;-33.706;151.094;2023-05-13T01:54:25;101277.80;;;16.37;47.56
37291;BME280;23175;-33.706;151.094;2023-05-13T01:56:56;101273.90;;;16.75;46.86
37291;BME280;23175;-33.706;151.094;2023-05-13T01:59:26;101272.21;;;15.92;47.48
37291;BME280;23175;-33.706;151.094;2023-05-13T02:01:56;101261.92;;;15.19;47.99
37291;BME280;23175;-33.706;151.094;2023-05-13T02:04:26;101254.70;;;16.22;46.43
37291;BME280;23175;-33.706;151.094;2023-05-13T02:06:56;101251.19;;;15.84;46.06
37291;BME280;23175;-33.706;151.094;2023-05-13T02:09:25;101251.08;;;14.86;48.68
37291;BME280;23175;-33.706;151.094;2023-05-13T02:11:55;101244.04;;;15.67;48.30
37291;BME280;23175;-33.706;151.094;2023-05-13T02:14:25;101239.42;;;15.17;48.81
37291;BME280;23175;-33.706;151.094;2023-05-13T02:16:55;101235.27;;;15.88;46.76
37291;BME280;23175;-33.706;151.094;2023-05-13T02:19:25;101237.43;;;16.93;45.56
37291;BME280;23175;-33.706;151.094;2023-05-13T02:21:55;101237.28;;;17.73;44.83
37291;BME280;23175;-33.706;151.094;2023-05-13T02:24:25;101235.70;;;14.48;48.54
37291;BME280;23175;-33.706;151.094;2023-05-13T02:26:54;101228.97;;;17.88;43.51
37291;BME280;23175;-33.706;151.094;2023-05-13T02:29:24;101224.90;;;14.82;48.57
37291;BME280;23175;-33.706;151.094;2023-05-13T02:31:54;101221.78;;;16.26;46.70
37291;BME280;23175;-33.706;151.094;2023-05-13T02:34:24;101223.11;;;12.85;51.46
37291;BME280;23175;-33.706;151.094;2023-05-13T02:36:53;101212.56;;;16.34;45.33
37291;BME280;23175;-33.706;151.094;2023-05-13T02:39:23;101214.58;;;15.23;47.94
37291;BME280;23175;-33.706;151.094;2023-05-13T02:41:53;101204.19;;;15.78;46.70
37291;BME280;23175;-33.706;151.094;2023-05-13T02:44:22;101204.37;;;15.26;47.56
37291;BME280;23175;-33.706;151.094;2023-05-13T02:46:52;101196.82;;;16.09;45.54
37291;BME280;23175;-33.706;151.094;2023-05-13T02:49:27;101191.13;;;17.23;44.98
37291;BME280;23175;-33.706;151.094;2023-05-13T02:51:57;101191.37;;;15.87;46.05
37291;BME280;23175;-33.706;151.094;2023-05-13T02:54:26;101193.89;;;14.12;50.77
37291;BME280;23175;-33.706;151.094;2023-05-13T02:56:57;101197.10;;;15.77;48.14
37291;BME280;23175;-33.706;151.094;2023-05-13T02:59:26;101199.65;;;16.92;47.39
37291;BME280;23175;-33.706;151.094;2023-05-13T03:01:57;101201.41;;;16.36;48.91
37291;BME280;23175;-33.706;151.094;2023-05-13T03:04:27;101204.84;;;17.23;48.52
37291;BME280;23175;-33.706;151.094;2023-05-13T03:06:57;101199.53;;;15.57;51.73
37291;BME280;23175;-33.706;151.094;2023-05-13T03:09:27;101196.73;;;16.59;50.13
37291;BME280;23175;-33.706;151.094;2023-05-13T03:11:57;101209.44;;;12.20;58.09
37291;BME280;23175;-33.706;151.094;2023-05-13T03:14:26;101200.68;;;16.55;49.78
37291;BME280;23175;-33.706;151.094;2023-05-13T03:16:56;101204.17;;;13.47;55.22
37291;BME280;23175;-33.706;151.094;2023-05-13T03:19:26;101198.81;;;16.01;51.70
37291;BME280;23175;-33.706;151.094;2023-05-13T03:21:56;101200.23;;;15.60;50.25
37291;BME280;23175;-33.706;151.094;2023-05-13T03:24:26;101195.62;;;17.27;46.95
37291;BME280;23175;-33.706;151.094;2023-05-13T03:26:56;101191.09;;;16.29;48.22
37291;BME280;23175;-33.706;151.094;2023-05-13T03:29:26;101192.86;;;16.23;48.75
37291;BME280;23175;-33.706;151.094;2023-05-13T03:31:56;101192.30;;;15.37;50.70
37291;BME280;23175;-33.706;151.094;2023-05-13T03:34:27;101187.41;;;16.94;49.15
37291;BME280;23175;-33.706;151.094;2023-05-13T03:36:57;101185.85;;;17.12;49.28
37291;BME280;23175;-33.706;151.094;2023-05-13T03:39:27;101188.50;;;15.79;52.20
37291;BME280;23175;-33.706;151.094;2023-05-13T03:41:57;101184.89;;;14.10;53.71
37291;BME280;23175;-33.706;151.094;2023-05-13T03:44:27;101187.12;;;13.97;54.65
37291;BME280;23175;-33.706;151.094;2023-05-13T03:46:56;101179.34;;;15.25;51.88
37291;BME280;23175;-33.706;151.094;2023-05-13T03:49:26;101175.61;;;14.67;51.13
37291;BME280;23175;-33.706;151.094;2023-05-13T03:51:56;101181.84;;;13.87;53.29
37291;BME280;23175;-33.706;151.094;2023-05-13T03:54:26;101175.38;;;15.63;50.38
37291;BME280;23175;-33.706;151.094;2023-05-13T03:56:56;101173.38;;;17.12;47.52
37291;BME280;23175;-33.706;151.094;2023-05-13T03:59:26;101176.17;;;15.52;52.05
37291;BME280;23175;-33.706;151.094;2023-05-13T04:01:57;101178.47;;;16.60;52.66
37291;BME280;23175;-33.706;151.094;2023-05-13T04:04:27;101175.29;;;15.46;51.85
37291;BME280;23175;-33.706;151.094;2023-05-13T04:06:57;101171.14;;;16.11;51.43
37291;BME280;23175;-33.706;151.094;2023-05-13T04:09:27;101174.39;;;14.61;54.83
37291;BME280;23175;-33.706;151.094;2023-05-13T04:11:57;101172.95;;;14.93;54.01
37291;BME280;23175;-33.706;151.094;2023-05-13T04:14:27;101171.95;;;14.60;55.09
37291;BME280;23175;-33.706;151.094;2023-05-13T04:16:57;101173.37;;;16.62;51.79
37291;BME280;23175;-33.706;151.094;2023-05-13T04:19:27;101179.28;;;15.85;53.82
37291;BME280;23175;-33.706;151.094;2023-05-13T04:21:57;101185.07;;;17.00;51.19
37291;BME280;23175;-33.706;151.094;2023-05-13T04:24:27;101186.74;;;15.41;54.99
37291;BME280;23175;-33.706;151.094;2023-05-13T04:26:58;101186.21;;;16.40;53.21
37291;BME280;23175;-33.706;151.094;2023-05-13T04:29:27;101181.88;;;16.40;54.49
37291;BME280;23175;-33.706;151.094;2023-05-13T04:31:58;101177.19;;;17.54;52.02
37291;BME280;23175;-33.706;151.094;2023-05-13T04:34:28;101172.74;;;16.10;54.23
37291;BME280;23175;-33.706;151.094;2023-05-13T04:36:58;101173.23;;;15.33;55.12
37291;BME280;23175;-33.706;151.094;2023-05-13T04:39:27;101169.69;;;18.23;49.83
37291;BME280;23175;-33.706;151.094;2023-05-13T04:41:57;101168.12;;;17.89;50.07
37291;BME280;23175;-33.706;151.094;2023-05-13T04:44:27;101168.36;;;18.28;48.04
37291;BME280;23175;-33.706;151.094;2023-05-13T04:46:58;101171.48;;;17.55;49.78
37291;BME280;23175;-33.706;151.094;2023-05-13T04:49:28;101176.11;;;18.43;48.23
37291;BME280;23175;-33.706;151.094;2023-05-13T04:51:59;101175.55;;;18.40;47.51
37291;BME280;23175;-33.706;151.094;2023-05-13T04:54:30;101176.82;;;19.12;47.21
37291;BME280;23175;-33.706;151.094;2023-05-13T04:57:00;101175.45;;;19.13;46.99
37291;BME280;23175;-33.706;151.094;2023-05-13T04:59:32;101175.96;;;19.17;47.82
37291;BME280;23175;-33.706;151.094;2023-05-13T05:02:02;101175.57;;;18.55;47.34
37291;BME280;23175;-33.706;151.094;2023-05-13T05:04:32;101175.48;;;18.53;47.32
37291;BME280;23175;-33.706;151.094;2023-05-13T05:07:02;101178.54;;;18.43;47.32
37291;BME280;23175;-33.706;151.094;2023-05-13T05:09:32;101181.09;;;18.89;47.39
37291;BME280;23175;-33.706;151.094;2023-05-13T05:12:01;101183.39;;;18.90;47.50
37291;BME280;23175;-33.706;151.094;2023-05-13T05:14:31;101188.98;;;18.58;47.50
37291;BME280;23175;-33.706;151.094;2023-05-13T05:17:01;101190.72;;;18.31;48.70
37291;BME280;23175;-33.706;151.094;2023-05-13T05:19:31;101189.34;;;18.30;48.75
37291;BME280;23175;-33.706;151.094;2023-05-13T05:22:00;101186.05;;;18.23;48.56
37291;BME280;23175;-33.706;151.094;2023-05-13T05:24:30;101187.48;;;18.56;48.27
37291;BME280;23175;-33.706;151.094;2023-05-13T05:27:00;101188.60;;;18.86;47.82
37291;BME280;23175;-33.706;151.094;2023-05-13T05:29:30;101188.71;;;18.90;47.74
37291;BME280;23175;-33.706;151.094;2023-05-13T05:32:01;101189.54;;;18.53;48.24
37291;BME280;23175;-33.706;151.094;2023-05-13T05:34:30;101189.87;;;18.60;47.51
37291;BME280;23175;-33.706;151.094;2023-05-13T05:37:00;101189.32;;;18.90;47.63
37291;BME280;23175;-33.706;151.094;2023-05-13T05:39:30;101190.22;;;18.56;48.11
37291;BME280;23175;-33.706;151.094;2023-05-13T05:41:59;101189.23;;;17.17;50.23
37291;BME280;23175;-33.706;151.094;2023-05-13T05:44:29;101191.70;;;17.97;49.01
37291;BME280;23175;-33.706;151.094;2023-05-13T05:46:59;101189.32;;;18.65;48.01
37291;BME280;23175;-33.706;151.094;2023-05-13T05:49:30;101187.25;;;16.53;51.06
37291;BME280;23175;-33.706;151.094;2023-05-13T05:52:00;101186.38;;;17.03;50.06
37291;BME280;23175;-33.706;151.094;2023-05-13T05:54:30;101188.13;;;17.29;49.58
37291;BME280;23175;-33.706;151.094;2023-05-13T05:57:00;101188.58;;;18.29;49.00
37291;BME280;23175;-33.706;151.094;2023-05-13T05:59:30;101187.79;;;17.19;48.93
37291;BME280;23175;-33.706;151.094;2023-05-13T06:02:00;101187.99;;;19.22;45.17
37291;BME280;23175;-33.706;151.094;2023-05-13T06:04:30;101188.74;;;18.92;45.61
37291;BME280;23175;-33.706;151.094;2023-05-13T06:07:00;101192.99;;;18.45;46.42
37291;BME280;23175;-33.706;151.094;2023-05-13T06:09:30;101195.54;;;18.78;45.47
37291;BME280;23175;-33.706;151.094;2023-05-13T06:12:00;101193.60;;;17.66;48.13
37291;BME280;23175;-33.706;151.094;2023-05-13T06:14:30;101194.91;;;18.55;46.35
37291;BME280;23175;-33.706;151.094;2023-05-13T06:17:00;101199.62;;;18.19;47.08
37291;BME280;23175;-33.706;151.094;2023-05-13T06:19:29;101203.29;;;18.46;46.39
37291;BME280;23175;-33.706;151.094;2023-05-13T06:21:59;101206.75;;;18.91;45.68
37291;BME280;23175;-33.706;151.094;2023-05-13T06:24:29;101209.08;;;18.95;45.84
37291;BME280;23175;-33.706;151.094;2023-05-13T06:26:58;101213.42;;;19.20;46.09
37291;BME280;23175;-33.706;151.094;2023-05-13T06:29:32;101215.56;;;18.86;46.09
37291;BME280;23175;-33.706;151.094;2023-05-13T06:32:02;101214.83;;;19.02;45.85
37291;BME280;23175;-33.706;151.094;2023-05-13T06:34:32;101212.09;;;19.16;46.08
37291;BME280;23175;-33.706;151.094;2023-05-13T06:37:02;101210.25;;;18.88;45.74
37291;BME280;23175;-33.706;151.094;2023-05-13T06:39:33;101206.69;;;18.84;46.09
37291;BME280;23175;-33.706;151.094;2023-05-13T06:42:03;101205.33;;;18.71;46.20
37291;BME280;23175;-33.706;151.094;2023-05-13T06:44:33;101204.44;;;18.78;46.04
37291;BME280;23175;-33.706;151.094;2023-05-13T06:47:05;101201.55;;;18.93;46.81
37291;BME280;23175;-33.706;151.094;2023-05-13T06:49:35;101204.08;;;18.61;46.73
37291;BME280;23175;-33.706;151.094;2023-05-13T06:52:05;101208.05;;;18.76;46.68
37291;BME280;23175;-33.706;151.094;2023-05-13T06:54:36;101211.59;;;18.64;46.55
37291;BME280;23175;-33.706;151.094;2023-05-13T06:57:06;101216.15;;;19.29;46.51
37291;BME280;23175;-33.706;151.094;2023-05-13T06:59:37;101212.42;;;18.53;46.55
37291;BME280;23175;-33.706;151.094;2023-05-13T07:02:07;101214.93;;;18.69;47.44
37291;BME280;23175;-33.706;151.094;2023-05-13T07:04:37;101215.57;;;18.79;47.38
37291;BME280;23175;-33.706;151.094;2023-05-13T07:07:07;101214.93;;;18.31;47.06
37291;BME280;23175;-33.706;151.094;2023-05-13T07:09:37;101216.75;;;18.40;47.16
37291;BME280;23175;-33.706;151.094;2023-05-13T07:12:07;101219.84;;;18.36;47.38
37291;BME280;23175;-33.706;151.094;2023-05-13T07:14:37;101223.59;;;18.60;47.54
37291;BME280;23175;-33.706;151.094;2023-05-13T07:17:07;101225.60;;;17.80;48.57
37291;BME280;23175;-33.706;151.094;2023-05-13T07:19:37;101228.97;;;18.52;47.78
37291;BME280;23175;-33.706;151.094;2023-05-13T07:22:07;101230.01;;;18.40;47.86
37291;BME280;23175;-33.706;151.094;2023-05-13T07:24:37;101227.34;;;18.45;47.73
37291;BME280;23175;-33.706;151.094;2023-05-13T07:27:07;101227.78;;;18.72;47.65
37291;BME280;23175;-33.706;151.094;2023-05-13T07:29:37;101230.62;;;18.59;47.75
37291;BME280;23175;-33.706;151.094;2023-05-13T07:32:08;101236.70;;;17.77;49.91
37291;BME280;23175;-33.706;151.094;2023-05-13T07:34:38;101240.71;;;18.30;48.81
37291;BME280;23175;-33.706;151.094;2023-05-13T07:37:08;101242.35;;;18.33;48.58
37291;BME280;23175;-33.706;151.094;2023-05-13T07:39:39;101244.30;;;17.95;48.60
37291;BME280;23175;-33.706;151.094;2023-05-13T07:42:09;101247.30;;;18.32;48.53
37291;BME280;23175;-33.706;151.094;2023-05-13T07:44:39;101246.35;;;17.96;48.78
37291;BME280;23175;-33.706;151.094;2023-05-13T07:47:10;101244.59;;;18.10;48.12
37291;BME280;23175;-33.706;151.094;2023-05-13T07:49:40;101245.06;;;17.43;49.81
37291;BME280;23175;-33.706;151.094;2023-05-13T07:52:09;101247.36;;;16.89;50.45
37291;BME280;23175;-33.706;151.094;2023-05-13T07:54:40;101250.07;;;17.13;50.19
37291;BME280;23175;-33.706;151.094;2023-05-13T07:57:10;101254.99;;;17.15;50.89
37291;BME280;23175;-33.706;151.094;2023-05-13T07:59:40;101258.10;;;16.97;51.08
37291;BME280;23175;-33.706;151.094;2023-05-13T08:02:10;101256.70;;;17.05;50.10
37291;BME280;23175;-33.706;151.094;2023-05-13T08:04:42;101258.87;;;17.68;49.45
37291;BME280;23175;-33.706;151.094;2023-05-13T08:07:12;101265.70;;;15.94;52.54
37291;BME280;23175;-33.706;151.094;2023-05-13T08:09:43;101262.25;;;17.22;50.94
37291;BME280;23175;-33.706;151.094;2023-05-13T08:12:12;101261.52;;;17.69;50.10
37291;BME280;23175;-33.706;151.094;2023-05-13T08:14:43;101262.57;;;17.51;49.52
37291;BME280;23175;-33.706;151.094;2023-05-13T08:17:13;101265.11;;;17.60;49.11
37291;BME280;23175;-33.706;151.094;2023-05-13T08:19:43;101267.02;;;17.99;49.17
37291;BME280;23175;-33.706;151.094;2023-05-13T08:22:13;101269.84;;;17.88;49.39
37291;BME280;23175;-33.706;151.094;2023-05-13T08:24:43;101272.97;;;17.15;49.40
37291;BME280;23175;-33.706;151.094;2023-05-13T08:27:13;101276.79;;;17.42;49.85
37291;BME280;23175;-33.706;151.094;2023-05-13T08:29:42;101281.17;;;17.15;50.30
37291;BME280;23175;-33.706;151.094;2023-05-13T08:32:12;101284.64;;;17.27;50.07
37291;BME280;23175;-33.706;151.094;2023-05-13T08:34:42;101282.33;;;17.43;49.79
37291;BME280;23175;-33.706;151.094;2023-05-13T08:37:13;101277.64;;;17.56;49.42
37291;BME280;23175;-33.706;151.094;2023-05-13T08:39:43;101276.83;;;17.29;49.26
37291;BME280;23175;-33.706;151.094;2023-05-13T08:42:13;101276.48;;;17.57;49.42
37291;BME280;23175;-33.706;151.094;2023-05-13T08:44:44;101278.85;;;17.30;50.05
37291;BME280;23175;-33.706;151.094;2023-05-13T08:47:22;101279.16;;;17.39;50.09
37291;BME280;23175;-33.706;151.094;2023-05-13T08:49:54;101281.33;;;17.36;50.06
37291;BME280;23175;-33.706;151.094;2023-05-13T08:52:25;101283.76;;;17.87;49.61
37291;BME280;23175;-33.706;151.094;2023-05-13T08:54:56;101282.60;;;17.23;49.34
37291;BME280;23175;-33.706;151.094;2023-05-13T08:57:27;101284.18;;;17.49;49.14
37291;BME280;23175;-33.706;151.094;2023-05-13T08:59:57;101280.09;;;17.26;49.15
37291;BME280;23175;-33.706;151.094;2023-05-13T09:02:27;101282.64;;;17.10;49.89
37291;BME280;23175;-33.706;151.094;2023-05-13T09:05:01;101282.39;;;16.39;50.78
37291;BME280;23175;-33.706;151.094;2023-05-13T09:07:33;101284.52;;;17.21;49.79
37291;BME280;23175;-33.706;151.094;2023-05-13T09:10:03;101284.97;;;17.31;49.69
37291;BME280;23175;-33.706;151.094;2023-05-13T09:12:51;101283.07;;;17.27;49.73
37291;BME280;23175;-33.706;151.094;2023-05-13T09:15:23;101285.37;;;17.22;49.64
37291;BME280;23175;-33.706;151.094;2023-05-13T09:17:55;101285.17;;;17.25;49.63
37291;BME280;23175;-33.706;151.094;2023-05-13T09:20:27;101283.40;;;17.17;49.75
37291;BME280;23175;-33.706;151.094;2023-05-13T09:23:00;101284.05;;;16.91;50.21
37291;BME280;23175;-33.706;151.094;2023-05-13T09:25:31;101286.07;;;17.15;49.83
37291;BME280;23175;-33.706;151.094;2023-05-13T09:28:02;101290.28;;;17.16;49.65
37291;BME280;23175;-33.706;151.094;2023-05-13T09:30:36;101292.46;;;17.42;49.93
37291;BME280;23175;-33.706;151.094;2023-05-13T09:33:07;101292.91;;;17.56;49.55
37291;BME280;23175;-33.706;151.094;2023-05-13T09:35:39;101296.82;;;16.98;49.91
37291;BME280;23175;-33.706;151.094;2023-05-13T09:38:18;101300.64;;;17.13;50.45
37291;BME280;23175;-33.706;151.094;2023-05-13T09:40:52;101312.67;;;14.07;55.64
37291;BME280;23175;-33.706;151.094;2023-05-13T09:43:24;101328.45;;;13.81;58.79
37291;BME280;23175;-33.706;151.094;2023-05-13T09:45:56;101316.34;;;11.60;53.55
37291;BME280;23175;-33.706;151.094;2023-05-13T09:48:29;101312.73;;;13.52;54.52
37291;BME280;23175;-33.706;151.094;2023-05-13T09:51:00;101318.97;;;14.66;51.98
37291;BME280;23175;-33.706;151.094;2023-05-13T09:53:31;101314.90;;;15.85;51.79
37291;BME280;23175;-33.706;151.094;2023-05-13T09:56:02;101314.70;;;15.20;52.80
37291;BME280;23175;-33.706;151.094;2023-05-13T09:58:32;101314.78;;;13.88;53.93
37291;BME280;23175;-33.706;151.094;2023-05-13T10:01:02;101313.05;;;14.70;53.60
37291;BME280;23175;-33.706;151.094;2023-05-13T10:03:33;101311.29;;;15.24;52.95
37291;BME280;23175;-33.706;151.094;2023-05-13T10:06:05;101314.75;;;15.10;53.42
37291;BME280;23175;-33.706;151.094;2023-05-13T10:08:36;101315.55;;;14.82;54.08
37291;BME280;23175;-33.706;151.094;2023-05-13T10:11:08;101314.64;;;15.08;53.02
37291;BME280;23175;-33.706;151.094;2023-05-13T10:13:40;101320.53;;;14.88;54.14
37291;BME280;23175;-33.706;151.094;2023-05-13T10:16:11;101324.07;;;14.49;54.48
37291;BME280;23175;-33.706;151.094;2023-05-13T10:18:41;101321.41;;;15.66;52.62
37291;BME280;23175;-33.706;151.094;2023-05-13T10:21:12;101317.94;;;15.89;52.44
37291;BME280;23175;-33.706;151.094;2023-05-13T10:23:43;101321.38;;;15.28;53.15
37291;BME280;23175;-33.706;151.094;2023-05-13T10:26:14;101314.71;;;12.78;58.36
37291;BME280;23175;-33.706;151.094;2023-05-13T10:28:46;101320.83;;;14.34;55.71
37291;BME280;23175;-33.706;151.094;2023-05-13T10:31:17;101323.84;;;14.85;55.41
37291;BME280;23175;-33.706;151.094;2023-05-13T10:33:47;101321.92;;;15.02;55.38
37291;BME280;23175;-33.706;151.094;2023-05-13T10:36:33;101312.12;;;15.71;53.46
37291;BME280;23175;-33.706;151.094;2023-05-13T10:39:23;101308.22;;;16.43;52.78
37291;BME280;23175;-33.706;151.094;2023-05-13T10:43:29;101316.53;;;15.44;54.39
37291;BME280;23175;-33.706;151.094;2023-05-13T10:46:01;101314.31;;;15.99;53.40
37291;BME280;23175;-33.706;151.094;2023-05-13T10:48:40;101313.27;;;16.61;52.19
37291;BME280;23175;-33.706;151.094;2023-05-13T10:51:14;101316.93;;;16.44;52.04
37291;BME280;23175;-33.706;151.094;2023-05-13T10:53:48;101327.02;;;14.75;54.71
37291;BME280;23175;-33.706;151.094;2023-05-13T10:56:21;101331.90;;;16.63;52.39
37291;BME280;23175;-33.706;151.094;2023-05-13T10:59:01;101330.39;;;16.45;51.53
37291;BME280;23175;-33.706;151.094;2023-05-13T11:01:35;101338.17;;;15.00;54.04
37291;BME280;23175;-33.706;151.094;2023-05-13T11:04:06;101338.21;;;16.58;51.88
37291;BME280;23175;-33.706;151.094;2023-05-13T11:06:37;101334.62;;;16.70;51.80
37291;BME280;23175;-33.706;151.094;2023-05-13T11:09:10;101338.56;;;16.35;52.50
37291;BME280;23175;-33.706;151.094;2023-05-13T11:11:44;101335.35;;;17.31;51.36
37291;BME280;23175;-33.706;151.094;2023-05-13T11:14:18;101333.41;;;16.77;51.20
37291;BME280;23175;-33.706;151.094;2023-05-13T11:16:53;101335.13;;;16.88;52.23
37291;BME280;23175;-33.706;151.094;2023-05-13T11:19:25;101334.23;;;16.78;51.09
37291;BME280;23175;-33.706;151.094;2023-05-13T11:22:04;101328.85;;;16.94;50.79
37291;BME280;23175;-33.706;151.094;2023-05-13T11:24:37;101329.37;;;17.04;50.34
37291;BME280;23175;-33.706;151.094;2023-05-13T11:27:15;101331.39;;;16.93;50.69
37291;BME280;23175;-33.706;151.094;2023-05-13T11:29:52;101336.74;;;14.92;53.09
37291;BME280;23175;-33.706;151.094;2023-05-13T11:32:53;101340.25;;;16.37;51.85
37291;BME280;23175;-33.706;151.094;2023-05-13T11:35:25;101332.70;;;16.85;50.99
37291;BME280;23175;-33.706;151.094;2023-05-13T11:37:56;101336.51;;;15.83;52.60
37291;BME280;23175;-33.706;151.094;2023-05-13T11:40:28;101334.12;;;16.49;51.96
37291;BME280;23175;-33.706;151.094;2023-05-13T11:42:58;101329.86;;;17.11;51.12
37291;BME280;23175;-33.706;151.094;2023-05-13T11:45:30;101331.21;;;13.25;58.13
37291;BME280;23175;-33.706;151.094;2023-05-13T11:48:18;101337.23;;;14.75;55.99
37291;BME280;23175;-33.706;151.094;2023-05-13T11:50:49;101344.48;;;14.44;57.27
37291;BME280;23175;-33.706;151.094;2023-05-13T11:53:21;101344.95;;;16.15;54.12
37291;BME280;23175;-33.706;151.094;2023-05-13T11:55:51;101342.44;;;15.96;53.30
37291;BME280;23175;-33.706;151.094;2023-05-13T11:58:22;101332.50;;;15.39;54.26
37291;BME280;23175;-33.706;151.094;2023-05-13T12:00:55;101324.02;;;15.62;53.12
37291;BME280;23175;-33.706;151.094;2023-05-13T12:03:28;101313.16;;;17.11;52.21
37291;BME280;23175;-33.706;151.094;2023-05-13T12:06:02;101307.74;;;16.14;52.64
37291;BME280;23175;-33.706;151.094;2023-05-13T12:08:32;101311.44;;;14.76;55.77
37291;BME280;23175;-33.706;151.094;2023-05-13T12:11:02;101313.08;;;14.05;56.64
37291;BME280;23175;-33.706;151.094;2023-05-13T12:13:32;101313.21;;;13.41;58.55
37291;BME280;23175;-33.706;151.094;2023-05-13T12:16:03;101313.17;;;15.38;54.35
37291;BME280;23175;-33.706;151.094;2023-05-13T12:18:34;101311.17;;;16.28;52.39
37291;BME280;23175;-33.706;151.094;2023-05-13T12:21:16;101311.11;;;16.71;52.09
37291;BME280;23175;-33.706;151.094;2023-05-13T12:23:47;101308.51;;;15.92;53.53
37291;BME280;23175;-33.706;151.094;2023-05-13T12:26:16;101304.26;;;16.34;52.54
37291;BME280;23175;-33.706;151.094;2023-05-13T12:28:48;101306.24;;;15.54;55.00
37291;BME280;23175;-33.706;151.094;2023-05-13T12:31:17;101305.94;;;15.57;54.02
37291;BME280;23175;-33.706;151.094;2023-05-13T12:33:48;101304.56;;;14.63;55.55
37291;BME280;23175;-33.706;151.094;2023-05-13T12:36:19;101299.75;;;15.95;53.24
37291;BME280;23175;-33.706;151.094;2023-05-13T12:38:59;101302.48;;;15.43;54.14
37291;BME280;23175;-33.706;151.094;2023-05-13T12:41:30;101302.46;;;16.08;53.18